Time;durP1;ratioP1;P1;durP2;ratioP2;P2;SDS_P1;SDS_P2;PMS_P1;PMS_P2;Temp;Humidity;BMP_temperature;BMP_pressure;BME280_temperature;BME280_humidity;BME280_pressure;Samples;Min_cycle;Max_cycle;Signal;HPM_P1;HPM_P2
2022/05/16 00:00:50;;;;;;;14.47;11.45;;;;;;;11.17;62.44;101085.75;1663059;85;25981;-75
2022/05/16 00:03:16;;;;;;;9.48;5.12;;;;;;;11.15;62.53;101089.96;1654481;85;28358;-76
2022/05/16 00:05:42;;;;;;;10.00;4.97;;;;;;;11.14;62.51;101093.64;1645067;85;25839;-76
2022/05/16 00:08:09;;;;;;;6.87;4.15;;;;;;;11.14;62.52;101100.34;1657986;85;25907;-76
2022/05/16 00:10:35;;;;;;;6.50;3.80;;;;;;;11.08;62.57;101091.68;1646543;85;26507;-76
2022/05/16 00:13:02;;;;;;;9.60;4.10;;;;;;;11.03;62.56;101090.55;1652463;85;25801;-75
2022/05/16 00:15:29;;;;;;;8.55;4.00;;;;;;;11.00;62.49;101097.59;1664303;85;26982;-76
2022/05/16 00:17:55;;;;;;;9.25;3.75;;;;;;;10.96;62.64;101098.97;1658243;85;25772;-76
2022/05/16 00:20:22;;;;;;;9.35;4.33;;;;;;;10.89;62.50;101092.14;1655923;84;25931;-76
2022/05/16 00:22:48;;;;;;;6.45;2.85;;;;;;;10.83;62.54;101093.69;1651369;85;25952;-76
2022/05/16 00:25:18;;;;;;;7.28;3.27;;;;;;;10.78;62.57;101100.07;1650129;85;26414;-76
2022/05/16 00:27:45;;;;;;;8.05;3.30;;;;;;;10.72;62.92;101095.92;1655356;85;28404;-76
2022/05/16 00:30:16;;;;;;;6.70;3.45;;;;;;;10.65;63.17;101101.64;1656165;85;25840;-76
2022/05/16 00:32:42;;;;;;;10.00;3.33;;;;;;;10.59;63.70;101104.53;1655951;85;25897;-76
2022/05/16 00:35:10;;;;;;;7.30;3.62;;;;;;;10.53;64.09;101109.25;1657351;85;25943;-77
2022/05/16 00:37:36;;;;;;;7.33;3.47;;;;;;;10.47;64.06;101106.42;1653805;85;25813;-76
2022/05/16 00:40:05;;;;;;;6.70;2.90;;;;;;;10.40;64.17;101108.96;1650872;85;28331;-76
2022/05/16 00:42:31;;;;;;;8.88;3.55;;;;;;;10.29;64.22;101112.00;1651913;85;25797;-76
2022/05/16 00:44:58;;;;;;;6.25;3.72;;;;;;;10.24;64.43;101110.86;1656035;85;25778;-76
2022/05/16 00:47:24;;;;;;;9.00;3.70;;;;;;;10.20;64.93;101116.23;1655414;85;26315;-76
2022/05/16 00:49:53;;;;;;;6.50;3.72;;;;;;;10.15;64.95;101114.07;1651022;85;25748;-76
2022/05/16 00:52:24;;;;;;;6.67;3.10;;;;;;;10.09;65.18;101112.05;1662813;85;27486;-76
2022/05/16 00:54:58;;;;;;;6.90;3.40;;;;;;;10.04;65.48;101125.10;1654609;85;25323;-76
2022/05/16 00:57:30;;;;;;;8.25;3.50;;;;;;;9.99;65.53;101122.09;1650691;85;26549;-76
2022/05/16 01:00:14;;;;;;;5.87;3.50;;;;;;;9.91;65.35;101120.27;1657801;85;26339;-76
2022/05/16 01:05:29;;;;;;;10.43;3.98;;;;;;;9.71;65.73;101120.81;1576428;90;28304;-75
2022/05/16 01:08:03;;;;;;;6.92;3.55;;;;;;;9.64;65.79;101122.48;1646211;83;25668;-76
2022/05/16 01:10:29;;;;;;;7.85;3.50;;;;;;;9.58;66.03;101119.95;1677509;83;26524;-76
2022/05/16 01:12:56;;;;;;;8.25;3.72;;;;;;;9.54;65.98;101114.61;1714917;83;26654;-76
2022/05/16 01:15:36;;;;;;;11.55;3.90;;;;;;;9.49;66.22;101117.47;1715076;83;26313;-77
2022/05/16 01:18:05;;;;;;;8.10;3.60;;;;;;;9.49;66.82;101115.63;1696540;83;27519;-76
2022/05/16 01:21:15;;;;;;;8.58;4.35;;;;;;;9.47;66.94;101114.13;1700029;83;26225;-76
2022/05/16 01:23:50;;;;;;;5.78;3.10;;;;;;;9.46;67.04;101114.62;1691387;83;25787;-76
2022/05/16 01:26:21;;;;;;;8.50;3.45;;;;;;;9.42;67.19;101115.11;1715139;83;25784;-76
2022/05/16 01:28:47;;;;;;;;;;;;;;;9.43;67.27;101116.80;1670390;84;25761;-76
2022/05/16 01:31:13;;;;;;;8.25;3.35;;;;;;;9.40;67.78;101117.97;1658166;86;27003;-76
2022/05/16 01:33:39;;;;;;;8.93;3.02;;;;;;;9.37;67.41;101120.14;1687834;83;26618;-76
2022/05/16 01:36:06;;;;;;;8.73;3.33;;;;;;;9.34;67.75;101119.97;1659861;84;25836;-75
2022/05/16 01:38:33;;;;;;;8.35;3.00;;;;;;;9.32;67.66;101124.65;1670576;84;25766;-75
2022/05/16 01:41:05;;;;;;;6.03;3.25;;;;;;;9.28;67.86;101125.98;1645841;85;25941;-76
2022/05/16 01:43:36;;;;;;;6.15;3.00;;;;;;;9.23;67.77;101126.48;1651600;85;28482;-76
2022/05/16 01:46:04;;;;;;;9.80;3.17;;;;;;;9.21;67.84;101134.32;1638274;87;26594;-76
2022/05/16 01:48:31;;;;;;;7.97;2.98;;;;;;;9.19;68.09;101131.82;1640028;87;25314;-76
2022/05/16 01:51:03;;;;;;;6.70;2.90;;;;;;;9.12;68.21;101132.13;1639902;86;26574;-76
2022/05/16 01:53:29;;;;;;;7.55;3.20;;;;;;;9.07;68.27;101135.79;1639366;87;26253;-76
2022/05/16 01:55:56;;;;;;;11.78;4.12;;;;;;;9.01;68.38;101127.59;1640494;87;27551;-76
2022/05/16 01:58:22;;;;;;;6.60;3.72;;;;;;;8.96;68.32;101133.94;1640391;87;25765;-76
2022/05/16 02:00:49;;;;;;;6.45;3.27;;;;;;;8.89;68.20;101131.58;1640373;86;25848;-75
2022/05/16 02:03:16;;;;;;;6.55;3.40;;;;;;;8.86;68.04;101138.08;1640344;87;25782;-76
2022/05/16 02:05:44;;;;;;;6.97;3.40;;;;;;;8.83;67.98;101141.58;1640077;87;25812;-76
2022/05/16 02:08:12;;;;;;;6.53;3.60;;;;;;;8.80;68.07;101150.75;1651841;85;28300;-77
2022/05/16 02:10:40;;;;;;;5.67;3.20;;;;;;;8.78;68.10;101150.08;1651002;86;25999;-76
2022/05/16 02:13:08;;;;;;;5.97;3.20;;;;;;;8.73;68.03;101157.73;1655839;85;25761;-76
2022/05/16 02:15:37;;;;;;;10.18;3.12;;;;;;;8.68;68.04;101157.88;1655621;85;26509;-76
2022/05/16 02:18:05;;;;;;;5.85;3.05;;;;;;;8.62;67.94;101158.53;1667174;85;25792;-76
2022/05/16 02:20:31;;;;;;;4.67;2.60;;;;;;;8.59;67.93;101159.69;1653262;85;28323;-75
2022/05/16 02:25:46;;;;;;;5.10;3.17;;;;;;;8.50;68.16;101165.98;1656184;85;26575;-76
2022/05/16 02:28:17;;;;;;;9.05;3.40;;;;;;;8.44;68.28;101163.46;1667062;85;25952;-76
2022/05/16 02:30:45;;;;;;;4.70;2.72;;;;;;;8.43;68.45;101164.93;1655104;85;25914;-76
2022/05/16 02:33:14;;;;;;;8.18;3.12;;;;;;;8.38;68.70;101165.41;1656654;85;27565;-76
2022/05/16 02:35:42;;;;;;;15.20;3.95;;;;;;;8.34;68.97;101169.91;1655536;85;26561;-75
2022/05/16 02:38:10;;;;;;;5.90;3.30;;;;;;;8.30;68.95;101172.04;1666905;85;25905;-76
2022/05/16 02:40:36;;;;;;;7.03;2.98;;;;;;;8.26;68.94;101173.35;1666744;85;25866;-75
2022/05/16 02:43:04;;;;;;;5.92;3.25;;;;;;;8.25;68.86;101165.48;1655222;85;26002;-76
2022/05/16 02:45:32;;;;;;;5.17;3.33;;;;;;;8.29;68.99;101178.39;1666843;85;28306;-76
2022/05/16 02:47:59;;;;;;;7.00;3.08;;;;;;;8.31;69.16;101163.54;1659778;85;25906;-76
2022/05/16 02:50:26;;;;;;;5.53;3.75;;;;;;;8.26;69.24;101172.02;1652344;85;25927;-75
2022/05/16 02:52:54;;;;;;;7.05;5.10;;;;;;;8.25;69.36;101165.48;1658386;85;26635;-76
2022/05/16 02:55:21;;;;;;;7.28;3.87;;;;;;;8.20;69.44;101171.29;1650409;85;25909;-76
2022/05/16 02:57:48;;;;;;;4.97;3.15;;;;;;;8.21;69.29;101174.28;1658554;85;27480;-75
2022/05/16 03:00:17;;;;;;;6.47;3.35;;;;;;;8.21;69.32;101170.80;1674823;84;26715;-75
2022/05/16 03:02:44;;;;;;;7.45;3.60;;;;;;;8.20;69.58;101167.77;1617934;85;25877;-76
2022/05/16 03:05:11;;;;;;;5.70;3.30;;;;;;;8.20;69.87;101169.95;1628772;87;26000;-76
2022/05/16 03:07:39;;;;;;;7.42;3.35;;;;;;;8.19;69.87;101170.94;1660543;85;25944;-76
2022/05/16 03:10:07;;;;;;;8.63;3.30;;;;;;;8.22;70.06;101167.12;1656560;85;28314;-75
2022/05/16 03:12:34;;;;;;;9.03;3.80;;;;;;;8.22;70.19;101171.12;1644653;85;25972;-75
2022/05/16 03:15:00;;;;;;;11.15;3.72;;;;;;;8.23;70.14;101164.28;1666841;85;26637;-75
2022/05/16 03:17:27;;;;;;;8.70;4.20;;;;;;;8.24;70.39;101176.65;1657880;85;25877;-75
2022/05/16 03:19:53;;;;;;;10.68;4.45;;;;;;;8.25;70.54;101175.70;1666564;85;26302;-75
2022/05/16 03:22:19;;;;;;;7.53;3.55;;;;;;;8.28;70.85;101175.36;1657902;84;27487;-75
2022/05/16 03:24:46;;;;;;;8.68;3.83;;;;;;;8.26;70.67;101173.35;1640060;85;25970;-76
2022/05/16 03:27:12;;;;;;;4.50;3.62;;;;;;;8.27;70.72;101176.87;1650863;85;25831;-75
2022/05/16 03:29:38;;;;;;;7.95;3.67;;;;;;;8.24;70.57;101180.65;1661137;85;25841;-75
2022/05/16 03:32:06;;;;;;;6.87;3.98;;;;;;;8.23;70.64;101178.96;1650914;85;26639;-76
2022/05/16 03:34:33;;;;;;;8.20;4.78;;;;;;;8.24;70.81;101177.13;1643084;85;27472;-75
2022/05/16 03:36:59;;;;;;;10.28;4.95;;;;;;;8.24;70.94;101185.14;1655835;85;25888;-75
2022/05/16 03:42:10;;;;;;;8.40;5.50;;;;;;;8.27;71.14;101182.20;1666739;85;25966;-76
2022/05/16 03:44:37;;;;;;;7.90;5.00;;;;;;;8.28;71.36;101177.19;1657368;85;25953;-76
2022/05/16 03:47:03;;;;;;;7.22;5.70;;;;;;;8.29;71.33;101178.88;1666920;85;28156;-75
2022/05/16 03:49:30;;;;;;;8.25;4.70;;;;;;;8.25;71.47;101173.03;1652390;85;25955;-76
2022/05/16 03:51:59;;;;;;;7.03;4.97;;;;;;;8.25;71.57;101169.48;1666855;85;25775;-76
2022/05/16 03:54:25;;;;;;;10.35;5.17;;;;;;;8.26;71.72;101171.17;1668874;85;25951;-75
2022/05/16 03:56:52;;;;;;;9.05;4.97;;;;;;;8.29;71.86;101173.54;1664387;86;25940;-75
2022/05/16 03:59:18;;;;;;;7.17;4.70;;;;;;;8.33;71.92;101177.08;1689429;84;27623;-76
2022/05/16 04:01:45;;;;;;;7.95;5.10;;;;;;;8.39;72.30;101176.44;1687065;83;25943;-76
2022/05/16 04:04:12;;;;;;;6.95;4.45;;;;;;;8.47;72.35;101172.95;1693446;83;25813;-76
2022/05/16 04:06:39;;;;;;;7.12;4.22;;;;;;;8.54;72.56;101178.00;1686787;83;25987;-76
2022/05/16 04:09:05;;;;;;;7.55;3.85;;;;;;;8.63;72.74;101178.88;1680408;83;25891;-76
2022/05/16 04:11:34;;;;;;;7.22;4.80;;;;;;;8.68;72.68;101188.59;1664905;84;27444;-76
2022/05/16 04:14:01;;;;;;;9.05;4.53;;;;;;;8.74;72.76;101190.63;1690545;83;26018;-76
2022/05/16 04:16:28;;;;;;;7.17;4.45;;;;;;;8.80;72.90;101192.64;1655007;85;25959;-75
2022/05/16 04:18:54;;;;;;;6.47;3.90;;;;;;;8.86;73.02;101198.19;1650729;85;25836;-77
2022/05/16 04:21:20;;;;;;;7.87;4.17;;;;;;;8.92;73.08;101195.35;1661905;84;26079;-76
2022/05/16 04:23:47;;;;;;;10.40;4.78;;;;;;;8.99;73.19;101198.57;1659659;85;27551;-75
2022/05/16 04:26:13;;;;;;;8.63;3.83;;;;;;;9.05;73.12;101204.59;1653713;85;26079;-76
2022/05/16 04:28:39;;;;;;;7.28;4.22;;;;;;;9.11;73.18;101203.13;1663606;85;26431;-76
2022/05/16 04:31:05;;;;;;;8.03;3.92;;;;;;;9.17;73.17;101203.81;1684976;83;25824;-75
2022/05/16 04:33:33;;;;;;;8.88;3.95;;;;;;;9.22;73.13;101197.45;1682224;84;26610;-75
2022/05/16 04:36:01;;;;;;;8.33;4.12;;;;;;;9.30;72.93;101204.99;1686584;84;28342;-76
2022/05/16 04:38:28;;;;;;;10.85;3.75;;;;;;;9.40;73.24;101198.67;1674650;84;25912;-76
2022/05/16 04:43:39;;;;;;;6.75;3.20;;;;;;;9.50;73.25;101194.84;1686507;84;25829;-76
2022/05/16 04:46:06;;;;;;;5.42;3.27;;;;;;;9.53;73.34;101192.34;1686708;84;25838;-75
2022/05/16 04:48:34;;;;;;;6.83;3.67;;;;;;;9.60;73.47;101196.84;1686772;84;27464;-76
2022/05/16 04:51:01;;;;;;;7.05;3.90;;;;;;;9.68;73.53;101194.20;1686241;84;26005;-76
2022/05/16 04:53:27;;;;;;;6.65;3.62;;;;;;;9.79;73.57;101188.53;1683398;84;25847;-76
2022/05/16 04:55:53;;;;;;;6.62;3.33;;;;;;;9.86;73.53;101185.98;1662294;84;25946;-75
2022/05/16 04:58:22;;;;;;;5.80;2.75;;;;;;;9.95;73.42;101187.66;1665979;84;25381;-76
2022/05/16 05:00:48;;;;;;;4.62;2.50;;;;;;;10.03;73.24;101184.48;1660768;84;27553;-76
2022/05/16 05:03:15;;;;;;;9.45;2.72;;;;;;;10.12;73.16;101181.32;1664624;84;26537;-76
2022/05/16 05:05:41;;;;;;;3.17;1.85;;;;;;;10.22;72.94;101173.96;1662866;84;26679;-76
2022/05/16 05:08:07;;;;;;;8.68;3.00;;;;;;;10.31;72.44;101182.81;1686416;84;25780;-76
2022/05/16 05:16:19;;;;;;;3.75;2.50;;;;;;;10.63;72.59;101180.02;1686528;83;25941;-76
2022/05/16 05:18:46;;;;;;;4.47;2.08;;;;;;;10.74;72.52;101179.64;1687966;83;25815;-76
2022/05/16 05:21:12;;;;;;;4.87;2.52;;;;;;;10.87;72.31;101182.61;1686359;83;26594;-76
2022/05/16 05:23:40;;;;;;;4.15;2.85;;;;;;;10.99;72.15;101181.73;1686388;83;25793;-76
2022/05/16 05:26:09;;;;;;;5.12;1.92;;;;;;;11.08;71.66;101173.45;1686734;83;28332;-76
2022/05/16 05:28:37;;;;;;;5.42;1.70;;;;;;;11.20;71.50;101175.23;1686448;83;26283;-76
2022/05/16 05:31:04;;;;;;;4.50;1.70;;;;;;;11.30;70.71;101179.36;1686479;83;26143;-76
2022/05/16 05:33:30;;;;;;;5.60;2.00;;;;;;;11.39;70.44;101182.33;1686693;83;25931;-75
2022/05/16 05:35:57;;;;;;;4.15;1.70;;;;;;;11.50;69.75;101178.39;1686564;83;25757;-76
2022/05/16 05:38:24;;;;;;;5.35;1.65;;;;;;;11.59;68.88;101186.69;1686572;83;27454;-76
2022/05/16 05:40:50;;;;;;;5.05;1.42;;;;;;;11.69;68.98;101186.50;1686315;83;25971;-76
2022/05/16 05:43:17;;;;;;;5.83;1.80;;;;;;;11.79;69.00;101192.45;1686135;83;25814;-75
2022/05/16 05:45:43;;;;;;;3.80;1.60;;;;;;;11.90;68.94;101190.68;1691794;83;25858;-76
2022/05/16 05:48:12;;;;;;;5.45;1.72;;;;;;;12.03;68.90;101187.72;1705157;83;26550;-76
2022/05/16 05:50:38;;;;;;;2.98;1.42;;;;;;;12.13;68.16;101188.28;1686361;83;27551;-75
2022/05/16 05:53:04;;;;;;;6.20;2.15;;;;;;;12.24;67.54;101192.38;1686482;83;25775;-76
2022/05/16 05:55:30;;;;;;;4.70;1.40;;;;;;;12.34;67.11;101199.16;1686218;83;26424;-75
2022/05/16 05:57:58;;;;;;;3.20;1.52;;;;;;;12.41;66.59;101196.56;1694008;83;25768;-76
2022/05/16 06:00:24;;;;;;;6.40;1.70;;;;;;;12.51;65.49;101201.15;1700213;83;26766;-76
2022/05/16 06:02:51;;;;;;;1.92;1.25;;;;;;;12.56;65.97;101201.44;1686319;84;27465;-76
2022/05/16 06:05:21;;;;;;;3.90;1.67;;;;;;;12.66;66.01;101203.34;1686411;83;26482;-76
2022/05/16 06:07:47;;;;;;;2.12;1.25;;;;;;;12.73;65.43;101193.52;1692466;83;26669;-75
2022/05/16 06:10:14;;;;;;;4.53;1.32;;;;;;;12.82;64.52;101197.78;1709971;83;26508;-76
2022/05/16 06:12:40;;;;;;;7.22;2.27;;;;;;;12.90;64.38;101194.98;1670645;84;26567;-76
2022/05/16 06:15:11;;;;;;;3.33;1.25;;;;;;;13.01;64.54;101193.67;1686636;83;27552;-76
2022/05/16 06:17:37;;;;;;;2.75;0.98;;;;;;;13.12;63.78;101187.84;1686693;83;25903;-76
2022/05/16 06:20:07;;;;;;;3.42;1.35;;;;;;;13.23;63.18;101190.05;1686495;83;25951;-76
2022/05/16 06:22:34;;;;;;;3.33;1.50;;;;;;;13.29;63.85;101187.94;1700157;83;25788;-75
2022/05/16 06:25:32;;;;;;;3.00;1.02;;;;;;;13.38;63.62;101190.84;1686519;83;25883;-76
2022/05/16 06:28:19;;;;;;;2.90;1.22;;;;;;;13.47;61.67;101182.95;1678616;83;28406;-76
2022/05/16 06:30:48;;;;;;;4.20;1.07;;;;;;;13.57;61.75;101181.30;1694291;83;25963;-75
2022/05/16 06:33:16;;;;;;;3.70;1.75;;;;;;;13.68;60.98;101188.37;1704064;83;25820;-76
2022/05/16 06:35:43;;;;;;;2.92;1.15;;;;;;;13.78;61.23;101184.83;1686586;83;26791;-76
2022/05/16 06:38:16;;;;;;;2.47;1.02;;;;;;;13.87;59.72;101184.18;1686349;84;26508;-76
2022/05/16 06:40:46;;;;;;;2.60;0.98;;;;;;;13.89;58.92;101184.31;1686128;84;28306;-76
2022/05/16 06:43:13;;;;;;;2.90;0.98;;;;;;;13.96;57.67;101187.56;1686013;83;25907;-75
2022/05/16 06:45:39;;;;;;;3.05;1.22;;;;;;;13.97;56.89;101187.37;1686204;83;25794;-75
2022/05/16 06:48:06;;;;;;;2.95;1.00;;;;;;;14.01;58.16;101178.41;1686656;83;26371;-76
2022/05/16 06:50:34;;;;;;;2.58;1.02;;;;;;;14.09;57.09;101185.83;1686330;83;25793;-76
2022/05/16 06:53:03;;;;;;;3.10;0.78;;;;;;;14.16;57.24;101185.34;1685830;83;27475;-76
2022/05/16 06:55:30;;;;;;;1.85;0.88;;;;;;;14.27;56.27;101186.16;1685717;83;25930;-77
2022/05/16 06:57:57;;;;;;;1.75;0.90;;;;;;;14.34;56.52;101194.32;1696007;83;25900;-76
2022/05/16 07:00:24;;;;;;;1.52;0.60;;;;;;;14.42;55.75;101199.55;1690002;83;25912;-76
2022/05/16 07:02:50;;;;;;;2.12;0.80;;;;;;;14.49;55.62;101196.40;1689396;83;25965;-76
2022/05/16 07:05:16;;;;;;;3.37;0.70;;;;;;;14.57;54.82;101193.54;1690968;83;27528;-76
2022/05/16 07:07:43;;;;;;;3.45;0.98;;;;;;;14.64;54.74;101193.91;1686001;84;25927;-77
2022/05/16 07:10:09;;;;;;;1.37;0.60;;;;;;;14.71;53.68;101195.80;1694554;83;25820;-76
2022/05/16 07:12:36;;;;;;;1.37;0.70;;;;;;;14.78;52.68;101194.80;1711759;83;26481;-77
2022/05/16 07:15:04;;;;;;;2.22;1.17;;;;;;;14.85;52.94;101197.53;1686446;83;26636;-75
2022/05/16 07:17:30;;;;;;;0.98;0.60;;;;;;;14.97;53.18;101199.99;1676698;83;27442;-77
2022/05/16 07:19:56;;;;;;;1.87;0.60;;;;;;;15.06;52.05;101200.11;1686115;83;25951;-76
2022/05/16 07:22:23;;;;;;;1.37;0.72;;;;;;;15.18;52.75;101194.47;1686404;83;25266;-75
2022/05/16 07:24:51;;;;;;;1.35;0.57;;;;;;;15.26;52.45;101193.78;1686461;83;25780;-75
2022/05/16 07:30:06;;;;;;;1.27;0.53;;;;;;;15.41;51.08;101199.00;1688405;83;27472;-75
2022/05/16 07:32:36;;;;;;;1.05;0.53;;;;;;;15.52;50.47;101193.05;1686317;83;25920;-76
2022/05/16 07:35:06;;;;;;;2.27;0.88;;;;;;;15.59;49.77;101200.63;1685922;83;25951;-75
2022/05/16 07:37:33;;;;;;;1.70;0.53;;;;;;;15.64;49.81;101193.27;1691879;83;26003;-75
2022/05/16 07:39:59;;;;;;;1.05;0.40;;;;;;;15.69;48.12;101199.73;1694669;83;26456;-75
2022/05/16 07:42:25;;;;;;;2.15;0.50;;;;;;;15.70;48.82;101195.14;1686386;83;27424;-75
2022/05/16 07:44:52;;;;;;;0.70;0.40;;;;;;;15.75;49.62;101193.50;1686358;84;25738;-75
2022/05/16 07:47:18;;;;;;;1.87;0.70;;;;;;;15.82;48.55;101197.05;1686206;83;26129;-76
2022/05/16 07:49:44;;;;;;;2.02;0.47;;;;;;;15.86;47.76;101191.55;1682998;83;25821;-76
2022/05/16 07:52:11;;;;;;;3.02;1.00;;;;;;;15.94;49.43;101194.55;1689565;83;25299;-76
2022/05/16 07:54:37;;;;;;;2.55;0.60;;;;;;;16.00;47.78;101189.15;1686083;83;27472;-76
2022/05/16 07:57:05;;;;;;;0.82;0.60;;;;;;;16.05;48.19;101192.06;1675347;83;26729;-76
2022/05/16 07:59:31;;;;;;;1.05;0.72;;;;;;;16.14;48.31;101189.98;1686220;83;25771;-75
2022/05/16 08:01:57;;;;;;;1.05;0.57;;;;;;;16.21;47.80;101184.03;1686188;83;26500;-76
2022/05/16 08:04:23;;;;;;;1.15;0.50;;;;;;;16.32;48.17;101189.33;1685956;84;25868;-76
2022/05/16 08:06:49;;;;;;;1.15;0.37;;;;;;;16.40;46.49;101190.48;1686873;83;26864;-76
2022/05/16 08:12:00;;;;;;;1.75;0.45;;;;;;;16.44;45.18;101200.67;1686818;83;26457;-75
2022/05/16 08:14:26;;;;;;;1.70;0.33;;;;;;;16.46;45.94;101199.10;1686497;83;26453;-76
2022/05/16 08:16:53;;;;;;;1.95;0.70;;;;;;;16.53;46.73;101202.67;1686897;83;25925;-76
2022/05/16 08:19:19;;;;;;;1.40;0.60;;;;;;;16.62;46.20;101203.57;1686281;83;27525;-76
2022/05/16 08:21:48;;;;;;;0.90;0.33;;;;;;;16.65;45.34;101200.97;1700062;83;26051;-75
2022/05/16 08:24:13;;;;;;;1.10;0.50;;;;;;;16.72;44.47;101202.60;1686561;83;25839;-76
2022/05/16 08:26:39;;;;;;;0.70;0.53;;;;;;;16.75;44.19;101200.84;1674805;83;26207;-76
2022/05/16 08:29:06;;;;;;;0.65;0.45;;;;;;;16.83;45.04;101195.70;1686442;83;25749;-76
2022/05/16 08:31:32;;;;;;;1.75;0.65;;;;;;;16.94;44.22;101193.69;1686195;83;27640;-75
2022/05/16 08:33:58;;;;;;;3.25;0.50;;;;;;;16.95;42.75;101197.56;1686305;83;25852;-75
2022/05/16 08:42:02;;;;;;;2.10;0.70;;;;;;;17.03;43.02;101179.39;1700396;83;26031;-76
2022/05/16 08:44:39;;;;;;;1.95;0.90;;;;;;;17.15;44.68;101187.17;1691449;83;27539;-75
2022/05/16 08:47:55;;;;;;;1.47;0.53;;;;;;;17.24;43.23;101190.75;1693399;83;25793;-75
2022/05/16 08:50:50;;;;;;;1.45;0.60;;;;;;;17.31;43.13;101195.63;1707226;83;25855;-76
2022/05/16 08:53:45;;;;;;;1.37;0.37;;;;;;;17.34;42.93;101196.53;1686367;83;25897;-75
2022/05/16 08:56:23;;;;;;;1.32;0.40;;;;;;;17.44;43.88;101191.50;1681670;83;25818;-76
2022/05/16 08:59:00;;;;;;;0.93;0.40;;;;;;;17.57;43.08;101188.74;1691134;83;27479;-76
2022/05/16 09:01:31;;;;;;;1.65;0.40;;;;;;;17.68;43.04;101192.63;1688561;83;26384;-75
2022/05/16 09:04:12;;;;;;;1.47;0.60;;;;;;;17.67;40.20;101194.50;1686632;83;25965;-76
2022/05/16 09:06:52;;;;;;;1.42;0.40;;;;;;;17.62;40.04;101193.52;1686840;83;26330;-76
2022/05/16 09:09:26;;;;;;;0.95;0.40;;;;;;;17.61;40.49;101199.45;1676668;83;26407;-76
2022/05/16 09:12:05;;;;;;;0.35;0.30;;;;;;;17.63;40.18;101196.51;1708970;83;29492;-76
2022/05/16 09:14:58;;;;;;;0.80;0.30;;;;;;;17.65;39.60;101193.89;1686247;83;26586;-75
2022/05/16 09:17:48;;;;;;;3.17;0.47;;;;;;;17.65;40.06;101197.12;1616414;88;26040;-76
2022/05/16 09:20:45;;;;;;;1.42;0.50;;;;;;;17.72;40.50;101192.50;1686689;83;26094;-76
2022/05/16 09:23:41;;;;;;;1.25;0.70;;;;;;;17.86;40.72;101190.50;1717465;83;25323;-76
2022/05/16 09:26:52;;;;;;;0.95;0.35;;;;;;;17.95;39.21;101197.32;1725062;83;28358;-76
2022/05/16 09:29:32;;;;;;;0.88;0.50;;;;;;;17.92;39.13;101194.52;1692357;83;26830;-76
2022/05/16 09:32:10;;;;;;;1.42;0.50;;;;;;;17.97;38.53;101187.09;1717788;83;26429;-76
2022/05/16 09:34:36;;;;;;;2.27;0.40;;;;;;;18.07;39.65;101190.16;1697115;82;25836;-76
2022/05/16 09:37:02;;;;;;;1.17;0.60;;;;;;;18.16;39.55;101191.52;1696528;83;25726;-75
2022/05/16 09:39:31;;;;;;;0.57;0.25;;;;;;;18.20;37.56;101195.44;1695907;83;28350;-75
2022/05/16 09:42:16;;;;;;;3.10;0.55;;;;;;;18.14;37.45;101195.81;1696423;83;26448;-76
2022/05/16 09:44:47;;;;;;;0.57;0.40;;;;;;;18.11;37.03;101190.81;1696740;83;26012;-76
2022/05/16 09:47:26;;;;;;;;;;;;;;;18.10;38.17;101185.63;1698995;84;25983;-76
2022/05/16 09:50:24;;;;;;;1.02;0.45;;;;;;;18.12;37.50;101186.23;1699678;83;25747;-75
2022/05/16 09:53:12;;;;;;;1.02;0.40;;;;;;;18.14;37.97;101184.12;1696207;83;27478;-76
2022/05/16 09:56:00;;;;;;;0.60;0.25;;;;;;;18.22;37.89;101179.25;1693135;83;25777;-75
2022/05/16 09:58:29;;;;;;;0.60;0.30;;;;;;;18.32;38.13;101186.90;1696394;84;26724;-75
2022/05/16 10:01:00;;;;;;;2.10;0.30;;;;;;;18.34;36.54;101194.28;1685005;84;25805;-76
2022/05/16 10:03:44;;;;;;;1.35;0.40;;;;;;;18.35;37.57;101186.43;1696332;84;25946;-75
2022/05/16 10:06:31;;;;;;;3.22;0.33;;;;;;;18.37;36.69;101187.03;1707047;83;27541;-75
2022/05/16 10:09:05;;;;;;;0.85;0.30;;;;;;;18.37;36.31;101189.75;1723120;83;25834;-75
2022/05/16 10:11:32;;;;;;;0.72;0.30;;;;;;;18.45;36.79;101188.16;1696342;83;26577;-76
2022/05/16 10:13:59;;;;;;;0.50;0.35;;;;;;;18.58;38.72;101189.91;1716551;83;25786;-76
2022/05/16 10:16:29;;;;;;;2.58;0.40;;;;;;;18.62;36.43;101185.17;1677299;84;25776;-76
2022/05/16 10:19:07;;;;;;;1.90;0.50;;;;;;;18.66;36.48;101188.25;1656597;85;28611;-76
2022/05/16 10:21:50;;;;;;;1.05;0.50;;;;;;;18.73;37.76;101183.59;1668530;84;25901;-76
2022/05/16 10:24:19;;;;;;;2.83;0.35;;;;;;;18.80;36.33;101193.30;1688451;84;25842;-76
2022/05/16 10:26:50;;;;;;;1.85;0.40;;;;;;;18.81;34.98;101189.55;1672233;84;26832;-75
2022/05/16 10:29:24;;;;;;;2.37;0.25;;;;;;;18.76;35.25;101187.19;1634089;84;25811;-76
2022/05/16 10:35:04;;;;;;;0.60;0.25;;;;;;;18.79;36.13;101182.68;1640595;85;25858;-76
2022/05/16 10:37:35;;;;;;;5.92;0.33;;;;;;;18.81;36.07;101176.49;1642446;85;25805;-75
2022/05/16 10:40:11;;;;;;;0.98;0.50;;;;;;;18.88;36.21;101179.42;1658595;85;25886;-75
2022/05/16 10:42:49;;;;;;;3.10;0.40;;;;;;;18.93;35.09;101174.67;1660683;85;25717;-76
2022/05/16 10:45:23;;;;;;;2.02;0.45;;;;;;;18.97;35.69;101171.80;1662148;85;28363;-77
2022/05/16 10:48:00;;;;;;;2.10;0.40;;;;;;;19.05;35.04;101166.08;1652182;85;25921;-76
2022/05/16 10:50:47;;;;;;;0.85;0.40;;;;;;;19.06;35.69;101163.65;1630619;85;25916;-76
2022/05/16 10:53:29;;;;;;;1.75;0.30;;;;;;;19.13;34.99;101159.81;1656331;85;26641;-75
2022/05/16 10:56:34;;;;;;;1.05;0.30;;;;;;;19.18;35.01;101149.62;1658524;85;25782;-76
2022/05/16 10:59:39;;;;;;;0.78;0.30;;;;;;;19.21;34.65;101143.70;1656265;85;27555;-75
2022/05/16 11:02:16;;;;;;;1.10;0.40;;;;;;;19.26;35.06;101143.86;1655620;85;25814;-76
2022/05/16 11:04:51;;;;;;;0.50;0.47;;;;;;;19.33;35.20;101140.53;1666773;84;25800;-76
2022/05/16 11:07:23;;;;;;;0.50;0.30;;;;;;;19.34;36.86;101139.48;1655257;85;25809;-75
2022/05/16 11:10:04;;;;;;;1.27;0.50;;;;;;;19.42;36.01;101125.56;1636655;85;26040;-76
2022/05/16 11:12:48;;;;;;;1.07;0.55;;;;;;;19.50;33.85;101128.50;1640761;85;27512;-75
2022/05/16 11:15:31;;;;;;;2.22;0.40;;;;;;;19.49;35.25;101137.17;1651023;85;25384;-76
2022/05/16 11:18:21;;;;;;;1.20;0.40;;;;;;;19.56;35.86;101124.32;1639040;85;36893;-75
2022/05/16 11:20:54;;;;;;;0.68;0.30;;;;;;;19.70;35.50;101123.04;1666542;85;25965;-76
2022/05/16 11:23:49;;;;;;;0.98;0.70;;;;;;;19.77;34.35;101123.77;1665957;85;26047;-76
2022/05/16 11:26:33;;;;;;;0.78;0.40;;;;;;;19.78;33.74;101111.81;1605783;89;27612;-76
2022/05/16 11:29:36;;;;;;;2.10;0.40;;;;;;;19.82;33.84;101107.56;1625633;86;25954;-76
2022/05/16 11:32:53;;;;;;;1.17;0.53;;;;;;;19.79;33.28;101101.25;1665679;84;26464;-76
2022/05/16 11:35:37;;;;;;;0.72;0.40;;;;;;;19.81;34.08;101103.73;1712418;83;26542;-75
2022/05/16 11:38:29;;;;;;;1.15;0.40;;;;;;;20.05;34.99;101099.97;1695059;84;26529;-75
2022/05/16 11:41:25;;;;;;;0.70;0.35;;;;;;;20.27;34.33;101100.23;1642894;85;27538;-76
2022/05/16 11:44:12;;;;;;;0.75;0.33;;;;;;;20.41;34.63;101101.63;1602810;85;25799;-76
2022/05/16 11:46:59;;;;;;;2.42;0.42;;;;;;;20.52;35.11;101108.95;1629221;86;25739;-76
2022/05/16 11:49:53;;;;;;;1.57;0.35;;;;;;;20.62;34.66;101104.55;1667537;85;25877;-76
2022/05/16 11:52:51;;;;;;;2.35;0.40;;;;;;;20.67;33.10;101107.91;1667179;85;25836;-76
2022/05/16 12:01:05;;;;;;;1.85;0.40;;;;;;;20.78;31.75;101100.25;1667485;85;26838;-76
2022/05/16 12:03:47;;;;;;;0.57;0.35;;;;;;;20.60;31.45;101100.40;1666455;85;26392;-76
2022/05/16 12:06:27;;;;;;;0.85;0.30;;;;;;;20.56;32.05;101093.78;1667408;85;26609;-76
2022/05/16 12:09:16;;;;;;;0.80;0.30;;;;;;;20.47;30.67;101091.13;1655108;84;28326;-76
2022/05/16 12:12:10;;;;;;;0.50;0.30;;;;;;;20.33;31.91;101089.75;1677393;84;25838;-76
2022/05/16 12:14:40;;;;;;;1.10;0.50;;;;;;;20.26;30.78;101096.67;1689601;84;25756;-76
2022/05/16 12:17:21;;;;;;;1.67;0.40;;;;;;;20.16;31.10;101090.98;1689670;84;26660;-76
2022/05/16 12:19:51;;;;;;;1.50;0.60;;;;;;;20.13;32.21;101089.25;1689445;84;25783;-76
2022/05/16 12:22:38;;;;;;;0.80;0.40;;;;;;;20.20;31.64;101077.23;1689422;84;27469;-76
2022/05/16 12:25:30;;;;;;;0.40;0.33;;;;;;;20.27;31.50;101083.91;1688421;84;25976;-76
2022/05/16 12:28:17;;;;;;;1.12;0.40;;;;;;;20.29;31.67;101077.17;1689601;84;25730;-76